Irvine, Canada
Current Conditions -  °F | °C
As of 5:00 AM on Tuesday 27 Jan 2015 (Local Time) from CYXH Reporting Station
Clear Clear  
Wind Chill: 32°   Ceiling: Unl
Heat Index: 37°   Visibility: 9mi
Dew Point: 32°   Wind: 7mph
Humidity: 81%   Direction: 230°SW
Pressure: 29.78"   Gusts: NA
Location:  49.96°N, 110.27°W
Report Text: CYXH 271200Z AUTO 23006KT 9SM CLR 03/M00 A2978 RMK SLP099
Loading
Personal Weather Stations






























Interactive Weather Map New forecast layout! Learn more

10-Day Weather Forecast

Advertisements
Track Severe Weather on mobile